PWSweather.com
Personal Weather Stations
Station Observations
UXOLA
Alcoy, AlcoyES

AlcoyAlcoyES

Lat: 38.70299, Lon: -0.48184

Elevation: 1935

Station Type: PCE FWS-20,

http://www.fiestasalcoy.xyz

High Low Average
Temperature 46.6°F8.1°C 30.7°F-0.7°C 41.7°F5.4°C
Dew Point 20.6°F-6.3°C 14.8°F-9.6°C 17.1°F-8.3°C
Winds 7.6 mph 12.2 kmh Calm Calm 2.0 mph S3.2 kmh S
Wind Gusts 13.6 mph21.9 kmh 2.2 mph3.5 kmh 5.0 mph8.0 kmh
Humidity 51% 30% 38%
Pressure 30.14 in1020.7 mb 30.08 in1018.6 mb -
Precipitation 0.00 in0.0 mm - -
Hour Temp Dew Point Humidity Winds Wind Gusts Pressure Precip Precip Rate Daily Precip Total
12:00 AM 38.8°F3.8°C 17.7°F-7.9°C 42% 4.5 mph NNW7.2 kmh NNW 5.4 mph8.7 kmh 30.08 in1018.6 mb 0.00 in0.0 mm 0.00 in0.0 mm 0.00 in0.0 mm
12:15 AM 38.8°F3.8°C 18.3°F-7.6°C 43% 6.0 mph N9.7 kmh N 8.3 mph13.4 kmh 30.08 in1018.6 mb 0.00 in0.0 mm 0.00 in0.0 mm 0.00 in0.0 mm
12:30 AM 38.8°F3.8°C 18.8°F-7.3°C 44% 3.1 mph NW5.0 kmh NW 13.6 mph21.9 kmh 30.08 in1018.6 mb 0.00 in0.0 mm 0.00 in0.0 mm 0.00 in0.0 mm
12:45 AM 39.0°F3.9°C 19.0°F-7.2°C 44% 6.0 mph NE9.7 kmh NE 9.8 mph15.8 kmh 30.09 in1019.0 mb 0.00 in0.0 mm 0.00 in0.0 mm 0.00 in0.0 mm
01:00 AM 39.0°F3.9°C 18.4°F-7.6°C 43% 3.8 mph NNE6.1 kmh NNE 10.7 mph17.2 kmh 30.09 in1019.0 mb 0.00 in0.0 mm 0.00 in0.0 mm 0.00 in0.0 mm
01:15 AM 39.0°F3.9°C 18.4°F-7.6°C 43% 4.5 mph NNW7.2 kmh NNW 11.4 mph18.3 kmh 30.09 in1019.0 mb 0.00 in0.0 mm 0.00 in0.0 mm 0.00 in0.0 mm
01:30 AM 38.7°F3.7°C 18.1°F-7.7°C 43% 1.6 mph NW2.6 kmh NW 4.5 mph7.2 kmh 30.09 in1019.0 mb 0.00 in0.0 mm 0.00 in0.0 mm 0.00 in0.0 mm
01:45 AM 37.9°F3.3°C 18.0°F-7.8°C 44% 5.4 mph NW8.7 kmh NW 6.9 mph11.1 kmh 30.09 in1019.0 mb 0.00 in0.0 mm 0.00 in0.0 mm 0.00 in0.0 mm
02:00 AM 37.6°F3.1°C 17.7°F-7.9°C 44% 4.5 mph NW7.2 kmh NW 9.2 mph14.8 kmh 30.09 in1019.0 mb 0.00 in0.0 mm 0.00 in0.0 mm 0.00 in0.0 mm
02:15 AM 37.6°F3.1°C 17.7°F-7.9°C 44% 7.6 mph NW12.2 kmh NW 9.2 mph14.8 kmh 30.09 in1019.0 mb 0.00 in0.0 mm 0.00 in0.0 mm 0.00 in0.0 mm
02:30 AM 37.6°F3.1°C 17.7°F-7.9°C 44% 6.0 mph NW9.7 kmh NW 7.6 mph12.2 kmh 30.09 in1019.0 mb 0.00 in0.0 mm 0.00 in0.0 mm 0.00 in0.0 mm
02:45 AM 37.2°F2.9°C 17.3°F-8.2°C 44% 3.8 mph NW6.1 kmh NW 8.3 mph13.4 kmh 30.10 in1019.3 mb 0.00 in0.0 mm 0.00 in0.0 mm 0.00 in0.0 mm
03:00 AM 37.4°F3.0°C 17.5°F-8.1°C 44% 5.4 mph NW8.7 kmh NW 8.3 mph13.4 kmh 30.10 in1019.3 mb 0.00 in0.0 mm 0.00 in0.0 mm 0.00 in0.0 mm
03:15 AM 37.0°F2.8°C 17.2°F-8.2°C 44% 5.4 mph NW8.7 kmh NW 7.6 mph12.2 kmh 30.09 in1019.0 mb 0.00 in0.0 mm 0.00 in0.0 mm 0.00 in0.0 mm
03:30 AM 36.9°F2.7°C 17.5°F-8.1°C 45% 6.9 mph NW11.1 kmh NW 8.3 mph13.4 kmh 30.09 in1019.0 mb 0.00 in0.0 mm 0.00 in0.0 mm 0.00 in0.0 mm
03:45 AM 36.7°F2.6°C 17.4°F-8.1°C 45% 6.9 mph NNW11.1 kmh NNW 8.3 mph13.4 kmh 30.09 in1019.0 mb 0.00 in0.0 mm 0.00 in0.0 mm 0.00 in0.0 mm
04:00 AM 36.7°F2.6°C 17.4°F-8.1°C 45% 6.9 mph NNW11.1 kmh NNW 9.2 mph14.8 kmh 30.10 in1019.3 mb 0.00 in0.0 mm 0.00 in0.0 mm 0.00 in0.0 mm
04:15 AM 36.1°F2.3°C 16.9°F-8.4°C 45% 6.0 mph NW9.7 kmh NW 8.3 mph13.4 kmh 30.10 in1019.3 mb 0.00 in0.0 mm 0.00 in0.0 mm 0.00 in0.0 mm
04:30 AM 36.1°F2.3°C 17.4°F-8.1°C 46% 6.9 mph NNW11.1 kmh NNW 10.7 mph17.2 kmh 30.09 in1019.0 mb 0.00 in0.0 mm 0.00 in0.0 mm 0.00 in0.0 mm
04:45 AM 36.0°F2.2°C 17.2°F-8.2°C 46% 6.9 mph NNW11.1 kmh NNW 9.2 mph14.8 kmh 30.10 in1019.3 mb 0.00 in0.0 mm 0.00 in0.0 mm 0.00 in0.0 mm
05:00 AM 35.8°F2.1°C 17.1°F-8.3°C 46% 3.1 mph NW5.0 kmh NW 6.9 mph11.1 kmh 30.11 in1019.6 mb 0.00 in0.0 mm 0.00 in0.0 mm 0.00 in0.0 mm
05:15 AM 35.1°F1.7°C 16.4°F-8.7°C 46% 2.2 mph NW3.5 kmh NW 4.5 mph7.2 kmh 30.11 in1019.6 mb 0.00 in0.0 mm 0.00 in0.0 mm 0.00 in0.0 mm
05:30 AM 34.7°F1.5°C 17.0°F-8.3°C 48% 1.6 mph NW2.6 kmh NW 4.5 mph7.2 kmh 30.10 in1019.3 mb 0.00 in0.0 mm 0.00 in0.0 mm 0.00 in0.0 mm
05:45 AM 35.1°F1.7°C 17.4°F-8.1°C 48% 2.2 mph NW3.5 kmh NW 6.0 mph9.7 kmh 30.11 in1019.6 mb 0.00 in0.0 mm 0.00 in0.0 mm 0.00 in0.0 mm
06:00 AM 34.7°F1.5°C 16.6°F-8.6°C 47% 2.2 mph NNW3.5 kmh NNW 5.4 mph8.7 kmh 30.11 in1019.6 mb 0.00 in0.0 mm 0.00 in0.0 mm 0.00 in0.0 mm
06:15 AM 34.5°F1.4°C 16.9°F-8.4°C 48% 5.4 mph NW8.7 kmh NW 6.9 mph11.1 kmh 30.09 in1019.0 mb 0.00 in0.0 mm 0.00 in0.0 mm 0.00 in0.0 mm
06:30 AM 36.0°F2.2°C 17.7°F-7.9°C 47% 6.0 mph N9.7 kmh N 10.7 mph17.2 kmh 30.09 in1019.0 mb 0.00 in0.0 mm 0.00 in0.0 mm 0.00 in0.0 mm
06:45 AM 34.2°F1.2°C 16.1°F-8.8°C 47% 0.7 mph ENE1.1 kmh ENE 3.1 mph5.0 kmh 30.10 in1019.3 mb 0.00 in0.0 mm 0.00 in0.0 mm 0.00 in0.0 mm
07:00 AM 33.3°F0.7°C 15.7°F-9.1°C 48% 0.7 mph SE1.1 kmh SE 4.5 mph7.2 kmh 30.10 in1019.3 mb 0.00 in0.0 mm 0.00 in0.0 mm 0.00 in0.0 mm
07:15 AM 32.2°F0.1°C 15.7°F-9.1°C 50% 1.6 mph SE2.6 kmh SE 2.2 mph3.5 kmh 30.10 in1019.3 mb 0.00 in0.0 mm 0.00 in0.0 mm 0.00 in0.0 mm
07:30 AM 32.0°F0.0°C 15.5°F-9.2°C 50% 0.7 mph SW1.1 kmh SW 3.1 mph5.0 kmh 30.10 in1019.3 mb 0.00 in0.0 mm 0.00 in0.0 mm 0.00 in0.0 mm
07:45 AM 32.4°F0.2°C 15.8°F-9.0°C 50% 1.6 mph WSW2.6 kmh WSW 3.1 mph5.0 kmh 30.11 in1019.6 mb 0.00 in0.0 mm 0.00 in0.0 mm 0.00 in0.0 mm
08:00 AM 32.5°F0.3°C 16.0°F-8.9°C 50% 1.6 mph W2.6 kmh W 3.8 mph6.1 kmh 30.12 in1020.0 mb 0.00 in0.0 mm 0.00 in0.0 mm 0.00 in0.0 mm
08:15 AM 31.6°F-0.2°C 15.2°F-9.3°C 50% 1.6 mph ENE2.6 kmh ENE 3.8 mph6.1 kmh 30.12 in1020.0 mb 0.00 in0.0 mm 0.00 in0.0 mm 0.00 in0.0 mm
08:30 AM 30.7°F-0.7°C 14.8°F-9.6°C 51% 3.1 mph N5.0 kmh N 4.5 mph7.2 kmh 30.12 in1020.0 mb 0.00 in0.0 mm 0.00 in0.0 mm 0.00 in0.0 mm
08:45 AM 31.5°F-0.3°C 15.5°F-9.2°C 51% Calm Calm 4.5 mph7.2 kmh 30.12 in1020.0 mb 0.00 in0.0 mm 0.00 in0.0 mm 0.00 in0.0 mm
09:00 AM 32.2°F0.1°C 16.1°F-8.8°C 51% 0.7 mph SE1.1 kmh SE 3.1 mph5.0 kmh 30.12 in1020.0 mb 0.00 in0.0 mm 0.00 in0.0 mm 0.00 in0.0 mm
09:15 AM 33.1°F0.6°C 16.5°F-8.6°C 50% 2.2 mph SE3.5 kmh SE 3.1 mph5.0 kmh 30.13 in1020.3 mb 0.00 in0.0 mm 0.00 in0.0 mm 0.00 in0.0 mm
09:30 AM 34.3°F1.3°C 17.7°F-7.9°C 50% 1.6 mph WSW2.6 kmh WSW 5.4 mph8.7 kmh 30.13 in1020.3 mb 0.00 in0.0 mm 0.00 in0.0 mm 0.00 in0.0 mm
09:45 AM 36.7°F2.6°C 19.3°F-7.1°C 49% 2.2 mph S3.5 kmh S 3.8 mph6.1 kmh 30.13 in1020.3 mb 0.00 in0.0 mm 0.00 in0.0 mm 0.00 in0.0 mm
10:00 AM 37.8°F3.2°C 19.4°F-7.0°C 47% 2.2 mph WSW3.5 kmh WSW 6.0 mph9.7 kmh 30.13 in1020.3 mb 0.00 in0.0 mm 0.00 in0.0 mm 0.00 in0.0 mm
10:15 AM 39.7°F4.3°C 20.2°F-6.6°C 45% 1.6 mph W2.6 kmh W 5.4 mph8.7 kmh 30.13 in1020.3 mb 0.00 in0.0 mm 0.00 in0.0 mm 0.00 in0.0 mm
10:30 AM 41.2°F5.1°C 20.4°F-6.4°C 43% 2.2 mph SE3.5 kmh SE 3.1 mph5.0 kmh 30.12 in1020.0 mb 0.00 in0.0 mm 0.00 in0.0 mm 0.00 in0.0 mm
10:45 AM 42.6°F5.9°C 20.6°F-6.3°C 41% 1.6 mph ESE2.6 kmh ESE 2.2 mph3.5 kmh 30.13 in1020.3 mb 0.00 in0.0 mm 0.00 in0.0 mm 0.00 in0.0 mm
11:00 AM 44.4°F6.9°C 16.4°F-8.7°C 32% Calm Calm 2.2 mph3.5 kmh 30.13 in1020.3 mb 0.00 in0.0 mm 0.00 in0.0 mm 0.00 in0.0 mm
11:15 AM 45.9°F7.7°C 17.0°F-8.3°C 31% Calm Calm 3.1 mph5.0 kmh 30.14 in1020.7 mb 0.00 in0.0 mm 0.00 in0.0 mm 0.00 in0.0 mm
11:30 AM 46.6°F8.1°C 16.8°F-8.4°C 30% Calm Calm 4.5 mph7.2 kmh 30.14 in1020.7 mb 0.00 in0.0 mm 0.00 in0.0 mm 0.00 in0.0 mm
11:45 AM 46.6°F8.1°C 16.8°F-8.4°C 30% Calm Calm 4.5 mph7.2 kmh 30.14 in1020.7 mb 0.00 in0.0 mm 0.00 in0.0 mm 0.00 in0.0 mm
12:00 PM 46.6°F8.1°C 16.8°F-8.4°C 30% Calm Calm 4.5 mph7.2 kmh 30.14 in1020.7 mb 0.00 in0.0 mm 0.00 in0.0 mm 0.00 in0.0 mm
12:15 PM 46.6°F8.1°C 16.8°F-8.4°C 30% Calm Calm 4.5 mph7.2 kmh 30.14 in1020.7 mb 0.00 in0.0 mm 0.00 in0.0 mm 0.00 in0.0 mm
12:30 PM 46.6°F8.1°C 16.8°F-8.4°C 30% Calm Calm 4.5 mph7.2 kmh 30.14 in1020.7 mb 0.00 in0.0 mm 0.00 in0.0 mm 0.00 in0.0 mm
12:45 PM 46.6°F8.1°C 16.8°F-8.4°C 30% Calm Calm 4.5 mph7.2 kmh 30.14 in1020.7 mb 0.00 in0.0 mm 0.00 in0.0 mm 0.00 in0.0 mm
01:00 PM 46.6°F8.1°C 16.8°F-8.4°C 30% Calm Calm 4.5 mph7.2 kmh 30.14 in1020.7 mb 0.00 in0.0 mm 0.00 in0.0 mm 0.00 in0.0 mm
01:15 PM 46.6°F8.1°C 16.8°F-8.4°C 30% Calm Calm 4.5 mph7.2 kmh 30.14 in1020.7 mb 0.00 in0.0 mm 0.00 in0.0 mm 0.00 in0.0 mm
01:30 PM 46.6°F8.1°C 16.8°F-8.4°C 30% Calm Calm 4.5 mph7.2 kmh 30.14 in1020.7 mb 0.00 in0.0 mm 0.00 in0.0 mm 0.00 in0.0 mm
01:45 PM 46.6°F8.1°C 16.8°F-8.4°C 30% Calm Calm 4.5 mph7.2 kmh 30.14 in1020.7 mb 0.00 in0.0 mm 0.00 in0.0 mm 0.00 in0.0 mm
02:00 PM 46.6°F8.1°C 16.8°F-8.4°C 30% Calm Calm 4.5 mph7.2 kmh 30.14 in1020.7 mb 0.00 in0.0 mm 0.00 in0.0 mm 0.00 in0.0 mm
02:15 PM 46.6°F8.1°C 16.8°F-8.4°C 30% Calm Calm 4.5 mph7.2 kmh 30.14 in1020.7 mb 0.00 in0.0 mm 0.00 in0.0 mm 0.00 in0.0 mm
02:30 PM 46.6°F8.1°C 16.8°F-8.4°C 30% Calm Calm 4.5 mph7.2 kmh 30.14 in1020.7 mb 0.00 in0.0 mm 0.00 in0.0 mm 0.00 in0.0 mm
02:45 PM 46.6°F8.1°C 16.8°F-8.4°C 30% Calm Calm 4.5 mph7.2 kmh 30.14 in1020.7 mb 0.00 in0.0 mm 0.00 in0.0 mm 0.00 in0.0 mm
03:00 PM 46.6°F8.1°C 16.8°F-8.4°C 30% Calm Calm 4.5 mph7.2 kmh 30.14 in1020.7 mb 0.00 in0.0 mm 0.00 in0.0 mm 0.00 in0.0 mm
03:15 PM 46.6°F8.1°C 16.8°F-8.4°C 30% Calm Calm 4.5 mph7.2 kmh 30.14 in1020.7 mb 0.00 in0.0 mm 0.00 in0.0 mm 0.00 in0.0 mm
03:30 PM 46.6°F8.1°C 16.8°F-8.4°C 30% Calm Calm 4.5 mph7.2 kmh 30.14 in1020.7 mb 0.00 in0.0 mm 0.00 in0.0 mm 0.00 in0.0 mm
03:45 PM 46.6°F8.1°C 16.8°F-8.4°C 30% Calm Calm 4.5 mph7.2 kmh 30.14 in1020.7 mb 0.00 in0.0 mm 0.00 in0.0 mm 0.00 in0.0 mm
04:00 PM 46.6°F8.1°C 16.8°F-8.4°C 30% Calm Calm 4.5 mph7.2 kmh 30.14 in1020.7 mb 0.00 in0.0 mm 0.00 in0.0 mm 0.00 in0.0 mm
04:15 PM 46.6°F8.1°C 16.8°F-8.4°C 30% Calm Calm 4.5 mph7.2 kmh 30.14 in1020.7 mb 0.00 in0.0 mm 0.00 in0.0 mm 0.00 in0.0 mm
04:30 PM 46.6°F8.1°C 16.8°F-8.4°C 30% Calm Calm 4.5 mph7.2 kmh 30.14 in1020.7 mb 0.00 in0.0 mm 0.00 in0.0 mm 0.00 in0.0 mm
04:45 PM 46.6°F8.1°C 16.8°F-8.4°C 30% Calm Calm 4.5 mph7.2 kmh 30.14 in1020.7 mb 0.00 in0.0 mm 0.00 in0.0 mm 0.00 in0.0 mm
05:00 PM 46.6°F8.1°C 16.8°F-8.4°C 30% Calm Calm 4.5 mph7.2 kmh 30.14 in1020.7 mb 0.00 in0.0 mm 0.00 in0.0 mm 0.00 in0.0 mm
05:15 PM 46.6°F8.1°C 16.8°F-8.4°C 30% Calm Calm 4.5 mph7.2 kmh 30.14 in1020.7 mb 0.00 in0.0 mm 0.00 in0.0 mm 0.00 in0.0 mm
05:30 PM 46.6°F8.1°C 16.8°F-8.4°C 30% Calm Calm 4.5 mph7.2 kmh 30.14 in1020.7 mb 0.00 in0.0 mm 0.00 in0.0 mm 0.00 in0.0 mm
05:45 PM 46.6°F8.1°C 16.8°F-8.4°C 30% Calm Calm 4.5 mph7.2 kmh 30.14 in1020.7 mb 0.00 in0.0 mm 0.00 in0.0 mm 0.00 in0.0 mm
06:00 PM 46.6°F8.1°C 16.8°F-8.4°C 30% Calm Calm 4.5 mph7.2 kmh 30.14 in1020.7 mb 0.00 in0.0 mm 0.00 in0.0 mm 0.00 in0.0 mm
06:15 PM 46.6°F8.1°C 16.8°F-8.4°C 30% Calm Calm 4.5 mph7.2 kmh 30.14 in1020.7 mb 0.00 in0.0 mm 0.00 in0.0 mm 0.00 in0.0 mm
06:30 PM 46.6°F8.1°C 16.8°F-8.4°C 30% Calm Calm 4.5 mph7.2 kmh 30.14 in1020.7 mb 0.00 in0.0 mm 0.00 in0.0 mm 0.00 in0.0 mm
06:45 PM 46.6°F8.1°C 16.8°F-8.4°C 30% Calm Calm 4.5 mph7.2 kmh 30.14 in1020.7 mb 0.00 in0.0 mm 0.00 in0.0 mm 0.00 in0.0 mm
07:00 PM 46.6°F8.1°C 16.8°F-8.4°C 30% Calm Calm 4.5 mph7.2 kmh 30.14 in1020.7 mb 0.00 in0.0 mm 0.00 in0.0 mm 0.00 in0.0 mm
07:15 PM 46.6°F8.1°C 16.8°F-8.4°C 30% Calm Calm 4.5 mph7.2 kmh 30.14 in1020.7 mb 0.00 in0.0 mm 0.00 in0.0 mm 0.00 in0.0 mm
07:30 PM 46.6°F8.1°C 16.8°F-8.4°C 30% Calm Calm 4.5 mph7.2 kmh 30.14 in1020.7 mb 0.00 in0.0 mm 0.00 in0.0 mm 0.00 in0.0 mm
07:45 PM 46.6°F8.1°C 16.8°F-8.4°C 30% Calm Calm 4.5 mph7.2 kmh 30.14 in1020.7 mb 0.00 in0.0 mm 0.00 in0.0 mm 0.00 in0.0 mm
08:00 PM 46.6°F8.1°C 16.8°F-8.4°C 30% Calm Calm 4.5 mph7.2 kmh 30.14 in1020.7 mb 0.00 in0.0 mm 0.00 in0.0 mm 0.00 in0.0 mm
08:15 PM 46.6°F8.1°C 16.8°F-8.4°C 30% Calm Calm 4.5 mph7.2 kmh 30.14 in1020.7 mb 0.00 in0.0 mm 0.00 in0.0 mm 0.00 in0.0 mm
08:30 PM 46.6°F8.1°C 16.8°F-8.4°C 30% Calm Calm 4.5 mph7.2 kmh 30.14 in1020.7 mb 0.00 in0.0 mm 0.00 in0.0 mm 0.00 in0.0 mm
08:45 PM 46.6°F8.1°C 16.8°F-8.4°C 30% Calm Calm 4.5 mph7.2 kmh 30.14 in1020.7 mb 0.00 in0.0 mm 0.00 in0.0 mm 0.00 in0.0 mm
09:00 PM 46.6°F8.1°C 16.8°F-8.4°C 30% Calm Calm 4.5 mph7.2 kmh 30.14 in1020.7 mb 0.00 in0.0 mm 0.00 in0.0 mm 0.00 in0.0 mm
09:15 PM 46.6°F8.1°C 16.8°F-8.4°C 30% Calm Calm 4.5 mph7.2 kmh 30.14 in1020.7 mb 0.00 in0.0 mm 0.00 in0.0 mm 0.00 in0.0 mm
09:30 PM 46.6°F8.1°C 16.8°F-8.4°C 30% Calm Calm 4.5 mph7.2 kmh 30.14 in1020.7 mb 0.00 in0.0 mm 0.00 in0.0 mm 0.00 in0.0 mm
09:45 PM 46.6°F8.1°C 16.8°F-8.4°C 30% Calm Calm 4.5 mph7.2 kmh 30.14 in1020.7 mb 0.00 in0.0 mm 0.00 in0.0 mm 0.00 in0.0 mm
10:00 PM 46.6°F8.1°C 16.8°F-8.4°C 30% Calm Calm 4.5 mph7.2 kmh 30.14 in1020.7 mb 0.00 in0.0 mm 0.00 in0.0 mm 0.00 in0.0 mm
10:15 PM 46.6°F8.1°C 16.8°F-8.4°C 30% Calm Calm 4.5 mph7.2 kmh 30.14 in1020.7 mb 0.00 in0.0 mm 0.00 in0.0 mm 0.00 in0.0 mm
10:30 PM 46.6°F8.1°C 16.8°F-8.4°C 30% Calm Calm 4.5 mph7.2 kmh 30.14 in1020.7 mb 0.00 in0.0 mm 0.00 in0.0 mm 0.00 in0.0 mm
10:45 PM 46.6°F8.1°C 16.8°F-8.4°C 30% Calm Calm 4.5 mph7.2 kmh 30.14 in1020.7 mb 0.00 in0.0 mm 0.00 in0.0 mm 0.00 in0.0 mm
11:00 PM 46.6°F8.1°C 16.8°F-8.4°C 30% Calm Calm 4.5 mph7.2 kmh 30.14 in1020.7 mb 0.00 in0.0 mm 0.00 in0.0 mm 0.00 in0.0 mm
11:15 PM 46.6°F8.1°C 16.8°F-8.4°C 30% Calm Calm 4.5 mph7.2 kmh 30.14 in1020.7 mb 0.00 in0.0 mm 0.00 in0.0 mm 0.00 in0.0 mm
11:30 PM 46.6°F8.1°C 16.8°F-8.4°C 30% Calm Calm 4.5 mph7.2 kmh 30.14 in1020.7 mb 0.00 in0.0 mm 0.00 in0.0 mm 0.00 in0.0 mm